Time;durP1;ratioP1;P1;durP2;ratioP2;P2;SDS_P1;SDS_P2;PMS_P1;PMS_P2;Temp;Humidity;BMP_temperature;BMP_pressure;BME280_temperature;BME280_humidity;BME280_pressure;Samples;Min_cycle;Max_cycle;Signal;HPM_P1;HPM_P2
2022/05/12 00:00:20;;;;;;;5.73;4.47;;;17.50;61.20;;;;;;5051745;28;20475;-63
2022/05/12 00:02:47;;;;;;;6.60;5.03;;;17.40;61.70;;;;;;5052309;28;20472;-63
2022/05/12 00:05:17;;;;;;;5.37;4.23;;;17.20;62.10;;;;;;5051838;28;20507;-63
2022/05/12 00:07:45;;;;;;;7.33;5.33;;;17.20;62.20;;;;;;5051987;28;20440;-63
2022/05/12 00:10:14;;;;;;;6.77;6.13;;;17.10;62.10;;;;;;5051504;28;20445;-63
2022/05/12 00:12:42;;;;;;;6.30;4.93;;;17.10;62.30;;;;;;5051996;28;20836;-63
2022/05/12 00:15:16;;;;;;;6.30;5.40;;;17.00;62.70;;;;;;5051653;28;20441;-63
2022/05/12 00:17:44;;;;;;;6.20;5.33;;;17.00;63.40;;;;;;5052019;28;20445;-63
2022/05/12 00:20:13;;;;;;;6.27;4.80;;;17.00;63.50;;;;;;5051688;28;20901;-63
2022/05/12 00:22:41;;;;;;;6.67;5.50;;;17.00;63.70;;;;;;5051808;28;20468;-63
2022/05/12 00:25:12;;;;;;;6.00;5.40;;;17.00;63.80;;;;;;5051491;28;20931;-63
2022/05/12 00:27:39;;;;;;;8.03;5.63;;;17.00;64.20;;;;;;5051944;28;20448;-63
2022/05/12 00:30:09;;;;;;;8.43;5.77;;;17.00;64.30;;;;;;5050665;28;20578;-64
2022/05/12 00:32:36;;;;;;;6.23;5.10;;;17.00;65.10;;;;;;5055132;28;20441;-63
2022/05/12 00:35:04;;;;;;;7.03;6.03;;;16.90;65.20;;;;;;5055859;28;20470;-63
2022/05/12 00:37:32;;;;;;;10.77;7.20;;;16.90;65.50;;;;;;5055898;28;20525;-64
2022/05/12 00:40:01;;;;;;;12.83;7.40;;;16.80;65.50;;;;;;5055497;28;20482;-65
2022/05/12 00:42:28;;;;;;;11.23;7.80;;;16.80;65.40;;;;;;5055731;28;21000;-63
2022/05/12 00:44:55;;;;;;;8.27;6.77;;;16.80;65.80;;;;;;5055417;28;20468;-64
2022/05/12 00:47:23;;;;;;;7.77;5.90;;;16.80;65.60;;;;;;5055608;28;20471;-63
2022/05/12 00:49:51;;;;;;;9.73;6.33;;;16.90;65.80;;;;;;5055146;28;20441;-63
2022/05/12 00:52:23;;;;;;;9.03;6.03;;;16.80;65.60;;;;;;5055669;28;21542;-63
2022/05/12 00:54:55;;;;;;;7.90;6.37;;;16.80;66.10;;;;;;5055457;28;20876;-63
2022/05/12 00:57:27;;;;;;;7.03;5.43;;;16.80;65.90;;;;;;5055665;28;20957;-63
2022/05/12 00:59:56;;;;;;;15.60;6.93;;;16.70;66.20;;;;;;5054944;28;20441;-63
2022/05/12 01:02:24;;;;;;;8.87;6.33;;;16.70;66.60;;;;;;5055385;28;20507;-63
2022/05/12 01:04:52;;;;;;;10.00;6.80;;;16.60;66.50;;;;;;5054716;28;20449;-63
2022/05/12 01:07:19;;;;;;;10.03;6.83;;;16.60;66.60;;;;;;5055503;28;20442;-63
2022/05/12 01:09:47;;;;;;;8.23;6.50;;;16.60;66.30;;;;;;5055083;28;20449;-64
2022/05/12 01:12:14;;;;;;;8.90;6.03;;;16.60;66.20;;;;;;5055368;28;20453;-63
2022/05/12 01:14:43;;;;;;;6.40;4.90;;;16.60;66.00;;;;;;5054523;28;20522;-63
2022/05/12 01:17:10;;;;;;;7.07;5.20;;;16.70;65.80;;;;;;5055094;28;20893;-63
2022/05/12 01:19:41;;;;;;;12.17;4.60;;;16.70;65.80;;;;;;5054741;28;20812;-63
2022/05/12 01:22:14;;;;;;;6.33;4.63;;;16.70;66.60;;;;;;5055024;28;20444;-63
2022/05/12 01:24:44;;;;;;;7.47;5.30;;;16.70;65.50;;;;;;5054625;28;20440;-63
2022/05/12 01:27:22;;;;;;;9.73;4.90;;;16.70;65.10;;;;;;5054976;28;20820;-63
2022/05/12 01:29:51;;;;;;;6.10;4.87;;;16.60;65.30;;;;;;5054466;28;20468;-63
2022/05/12 01:32:19;;;;;;;5.57;4.00;;;16.60;65.10;;;;;;5054492;28;20924;-63
2022/05/12 01:34:47;;;;;;;6.90;6.00;;;16.60;65.40;;;;;;5054286;28;20511;-63
2022/05/12 01:37:14;;;;;;;8.80;5.63;;;16.60;66.00;;;;;;5054859;28;20622;-63
2022/05/12 01:39:43;;;;;;;6.47;5.30;;;16.60;66.20;;;;;;5054715;28;20437;-63
2022/05/12 01:42:12;;;;;;;9.87;5.50;;;16.60;66.00;;;;;;5054489;28;20942;-63
2022/05/12 01:44:41;;;;;;;8.47;5.67;;;16.60;66.70;;;;;;5054236;28;20483;-63
2022/05/12 01:47:10;;;;;;;7.67;5.30;;;16.60;65.70;;;;;;5054510;28;20476;-64
2022/05/12 01:49:37;;;;;;;7.23;5.33;;;16.60;65.80;;;;;;5053910;28;20441;-63
2022/05/12 01:52:06;;;;;;;7.07;4.90;;;16.60;65.60;;;;;;5054623;28;20444;-64
2022/05/12 01:54:33;;;;;;;7.03;4.83;;;16.60;65.90;;;;;;5054149;28;20469;-64
2022/05/12 01:57:04;;;;;;;7.33;4.77;;;16.70;65.80;;;;;;5054525;28;20471;-64
2022/05/12 01:59:31;;;;;;;6.13;4.87;;;16.70;65.50;;;;;;5053894;28;20985;-64
2022/05/12 02:01:58;;;;;;;8.77;4.60;;;16.70;65.10;;;;;;5054323;28;20524;-64
2022/05/12 02:04:26;;;;;;;6.43;5.33;;;16.70;65.20;;;;;;5053780;28;20432;-63
2022/05/12 02:06:54;;;;;;;8.13;5.50;;;16.70;65.20;;;;;;5054550;28;20437;-63
2022/05/12 02:09:21;;;;;;;7.43;5.30;;;16.70;65.00;;;;;;5053818;28;20532;-64
2022/05/12 02:11:48;;;;;;;11.43;6.30;;;16.70;64.90;;;;;;5054030;28;20927;-63
2022/05/12 02:14:17;;;;;;;7.17;5.60;;;16.80;65.00;;;;;;5054029;28;20484;-63
2022/05/12 02:16:44;;;;;;;5.47;4.20;;;16.70;65.50;;;;;;5053267;28;20536;-63
2022/05/12 02:19:12;;;;;;;7.23;5.93;;;16.70;65.80;;;;;;5053818;28;20499;-63
2022/05/12 02:21:39;;;;;;;7.03;4.80;;;16.70;65.90;;;;;;5053543;28;20448;-63
2022/05/12 02:24:08;;;;;;;7.93;5.77;;;16.70;65.80;;;;;;5053280;28;20463;-64
2022/05/12 02:26:36;;;;;;;9.13;6.07;;;16.70;66.00;;;;;;5053745;28;20524;-63
2022/05/12 02:29:04;;;;;;;8.37;5.70;;;16.70;66.20;;;;;;5053393;28;20460;-63
2022/05/12 02:31:33;;;;;;;8.97;5.20;;;16.70;66.30;;;;;;5053573;28;20855;-64
2022/05/12 02:34:01;;;;;;;6.20;5.30;;;16.70;66.00;;;;;;5052713;28;20476;-63
2022/05/12 02:36:28;;;;;;;7.40;5.80;;;16.70;66.50;;;;;;5053583;28;20440;-64
2022/05/12 02:38:55;;;;;;;12.47;7.33;;;16.60;66.80;;;;;;5053362;28;20436;-63
2022/05/12 02:41:22;;;;;;;6.60;5.23;;;16.60;66.50;;;;;;5053619;28;20440;-63
2022/05/12 02:43:49;;;;;;;8.37;6.40;;;16.60;66.30;;;;;;5053019;28;20846;-64
2022/05/12 02:46:17;;;;;;;8.13;5.83;;;16.70;66.20;;;;;;5053202;28;20571;-63
2022/05/12 02:48:50;;;;;;;6.10;5.50;;;16.70;66.20;;;;;;5052892;28;20523;-67
2022/05/12 02:51:17;;;;;;;8.07;5.10;;;16.80;66.90;;;;;;5053509;28;20551;-63
2022/05/12 02:53:45;;;;;;;5.80;5.20;;;16.80;66.80;;;;;;5052591;28;20484;-64
2022/05/12 02:56:13;;;;;;;7.53;5.83;;;16.80;67.10;;;;;;5053344;28;20805;-63
2022/05/12 02:58:41;;;;;;;10.30;4.97;;;16.80;67.60;;;;;;5053155;28;20437;-63
2022/05/12 03:01:08;;;;;;;10.17;6.30;;;16.70;67.90;;;;;;5053150;28;20907;-63
2022/05/12 03:03:36;;;;;;;7.93;5.33;;;16.70;67.50;;;;;;5052914;28;20818;-63
2022/05/12 03:06:05;;;;;;;8.40;6.33;;;16.70;67.60;;;;;;5053090;28;20437;-63
2022/05/12 03:08:32;;;;;;;17.17;6.73;;;16.70;67.70;;;;;;5052653;28;20440;-64
2022/05/12 03:10:59;;;;;;;13.63;9.47;;;16.60;68.30;;;;;;5053016;28;20487;-64
2022/05/12 03:13:27;;;;;;;9.33;6.97;;;16.50;68.80;;;;;;5052590;28;20448;-63
2022/05/12 03:15:56;;;;;;;8.60;6.83;;;16.50;69.30;;;;;;5052967;28;20476;-63
2022/05/12 03:18:23;;;;;;;9.17;6.77;;;16.40;69.40;;;;;;5052555;28;20998;-63
2022/05/12 03:20:50;;;;;;;8.27;6.20;;;16.40;69.60;;;;;;5052709;28;21038;-63
2022/05/12 03:23:22;;;;;;;6.30;5.60;;;16.40;69.60;;;;;;5051966;28;20433;-64
2022/05/12 03:25:49;;;;;;;6.47;5.87;;;16.40;70.20;;;;;;5052429;28;20444;-63
2022/05/12 03:28:16;;;;;;;8.10;6.83;;;16.40;70.70;;;;;;5052482;28;20437;-63
2022/05/12 03:30:44;;;;;;;10.10;7.70;;;16.30;70.80;;;;;;5052335;28;20433;-63
2022/05/12 03:33:11;;;;;;;8.97;7.53;;;16.30;71.00;;;;;;5052265;28;20510;-63
2022/05/12 03:35:38;;;;;;;15.40;9.90;;;16.30;71.50;;;;;;5052387;28;21029;-63
2022/05/12 03:38:07;;;;;;;12.60;8.87;;;16.30;71.60;;;;;;5052117;28;20448;-63
2022/05/12 03:40:36;;;;;;;13.60;7.73;;;16.30;71.80;;;;;;5052514;28;20437;-63
2022/05/12 03:43:03;;;;;;;10.83;7.20;;;16.20;71.00;;;;;;5052169;28;20437;-64
2022/05/12 03:45:30;;;;;;;9.27;6.53;;;16.20;70.50;;;;;;5052232;28;20495;-63
2022/05/12 03:47:58;;;;;;;10.23;6.93;;;16.20;70.20;;;;;;5052035;28;20472;-64
2022/05/12 03:50:28;;;;;;;10.10;6.40;;;16.20;69.80;;;;;;5052259;28;20498;-65
2022/05/12 03:52:57;;;;;;;6.57;5.17;;;16.30;69.50;;;;;;5051700;28;20437;-64
2022/05/12 03:55:27;;;;;;;10.50;5.37;;;16.40;68.80;;;;;;5051817;28;20826;-65
2022/05/12 03:57:56;;;;;;;12.17;6.80;;;16.50;68.30;;;;;;5051991;28;20428;-64
2022/05/12 04:00:27;;;;;;;11.20;6.83;;;16.50;67.70;;;;;;5052392;28;20816;-63
2022/05/12 04:02:55;;;;;;;7.40;5.80;;;16.60;66.90;;;;;;5052732;28;20441;-63
2022/05/12 04:05:22;;;;;;;5.83;4.60;;;16.70;67.10;;;;;;5051912;28;20437;-63
2022/05/12 04:07:51;;;;;;;6.10;5.07;;;16.70;65.90;;;;;;5052425;28;20448;-64
2022/05/12 04:10:18;;;;;;;7.90;4.60;;;16.80;65.50;;;;;;5051856;28;20441;-63
2022/05/12 04:12:45;;;;;;;6.03;3.90;;;16.90;64.30;;;;;;5052443;28;20433;-63
2022/05/12 04:15:15;;;;;;;6.10;4.83;;;17.00;63.70;;;;;;5051885;28;20488;-63
2022/05/12 04:17:43;;;;;;;6.87;4.37;;;17.10;63.40;;;;;;5052309;28;20846;-63
2022/05/12 04:20:13;;;;;;;6.33;5.17;;;17.20;62.70;;;;;;5051796;28;20451;-63
2022/05/12 04:22:42;;;;;;;4.93;4.03;;;17.30;62.70;;;;;;5052457;28;20848;-63
2022/05/12 04:25:10;;;;;;;7.10;4.50;;;17.40;62.50;;;;;;5051988;28;20848;-63
2022/05/12 04:27:38;;;;;;;7.73;4.50;;;17.50;62.40;;;;;;5052089;28;20433;-64
2022/05/12 04:30:07;;;;;;;5.33;4.20;;;17.60;62.60;;;;;;5051593;28;20471;-67
2022/05/12 04:32:36;;;;;;;6.50;3.50;;;17.70;62.80;;;;;;5052451;28;21176;-63
2022/05/12 04:35:13;;;;;;;6.27;3.90;;;17.80;62.10;;;;;;5051486;28;21003;-69
2022/05/12 04:37:45;;;;;;;9.83;4.33;;;17.90;62.40;;;;;;5049616;28;20437;-64
2022/05/12 04:40:16;;;;;;;7.27;5.13;;;18.00;61.00;;;;;;5050138;28;20785;-63
2022/05/12 04:42:43;;;;;;;6.93;4.70;;;18.20;61.20;;;;;;5050535;28;20476;-63
2022/05/12 04:45:11;;;;;;;8.57;5.53;;;18.20;60.60;;;;;;5049885;28;20448;-64
2022/05/12 04:47:40;;;;;;;8.27;4.67;;;18.30;60.80;;;;;;5050882;28;20872;-63
2022/05/12 04:50:12;;;;;;;13.53;5.03;;;18.30;61.10;;;;;;5049616;28;20811;-65
2022/05/12 04:52:39;;;;;;;9.53;4.40;;;18.30;60.80;;;;;;5046202;28;21005;-64
2022/05/12 04:55:07;;;;;;;9.37;4.97;;;18.50;60.10;;;;;;5050848;28;20492;-64
2022/05/12 04:57:38;;;;;;;12.77;5.30;;;18.60;60.40;;;;;;5050248;28;20457;-63
2022/05/12 05:00:07;;;;;;;7.07;4.53;;;18.80;60.80;;;;;;5046823;28;20437;-63
2022/05/12 05:02:34;;;;;;;5.97;3.97;;;18.90;61.70;;;;;;5049578;28;20496;-64
2022/05/12 05:05:04;;;;;;;7.17;4.17;;;19.00;59.90;;;;;;5050562;28;20437;-65
2022/05/12 05:07:31;;;;;;;6.10;3.57;;;19.10;58.40;;;;;;5049770;28;20437;-64
2022/05/12 05:09:58;;;;;;;6.60;3.47;;;19.20;58.30;;;;;;5050098;28;20536;-64
2022/05/12 05:12:25;;;;;;;7.47;4.10;;;19.20;57.30;;;;;;5048943;28;20532;-63
2022/05/12 05:14:52;;;;;;;8.87;4.20;;;19.30;57.10;;;;;;5048383;28;20476;-64
2022/05/12 05:17:19;;;;;;;8.33;3.80;;;19.30;56.80;;;;;;5049694;28;20449;-64
2022/05/12 05:19:46;;;;;;;5.33;3.10;;;19.50;57.00;;;;;;5051582;28;20443;-64
2022/05/12 05:22:14;;;;;;;10.17;3.70;;;19.60;56.10;;;;;;5054203;28;20922;-63
2022/05/12 05:24:41;;;;;;;6.17;3.57;;;19.60;56.10;;;;;;5054438;28;20520;-65
2022/05/12 05:27:08;;;;;;;3.50;2.60;;;19.70;55.80;;;;;;5053154;28;20490;-63
2022/05/12 05:29:40;;;;;;;4.53;3.80;;;19.70;55.80;;;;;;5054197;28;20837;-64
2022/05/12 05:32:10;;;;;;;5.60;3.50;;;19.80;56.30;;;;;;5049728;28;20469;-64
2022/05/12 05:34:36;;;;;;;5.30;2.90;;;19.90;55.10;;;;;;5053089;28;20485;-63
2022/05/12 05:37:04;;;;;;;4.97;3.47;;;20.00;55.10;;;;;;5052236;28;20731;-64
2022/05/12 05:39:32;;;;;;;4.03;3.50;;;20.00;55.40;;;;;;5052476;28;20441;-64
2022/05/12 05:42:02;;;;;;;4.83;3.30;;;20.10;55.10;;;;;;5055541;28;20866;-64
2022/05/12 05:44:32;;;;;;;7.40;4.10;;;20.10;54.60;;;;;;5055614;28;20513;-64
2022/05/12 05:46:59;;;;;;;6.33;3.87;;;20.30;55.90;;;;;;5053720;28;20998;-64
2022/05/12 05:49:27;;;;;;;12.80;3.67;;;20.40;54.60;;;;;;5055180;28;20432;-67
2022/05/12 05:54:40;;;;;;;7.00;3.30;;;20.50;55.20;;;;;;5054189;28;20472;-63
2022/05/12 05:57:07;;;;;;;3.90;3.10;;;20.60;54.40;;;;;;5055246;28;20433;-64
2022/05/12 05:59:35;;;;;;;5.10;3.57;;;20.70;54.20;;;;;;5055281;28;20523;-64
2022/05/12 06:02:02;;;;;;;5.93;3.10;;;20.70;54.50;;;;;;5055246;28;20779;-63
2022/05/12 06:04:30;;;;;;;5.33;3.80;;;20.70;55.40;;;;;;5055212;28;20916;-63
2022/05/12 06:06:57;;;;;;;5.33;3.53;;;20.80;55.00;;;;;;5055090;28;20519;-64
2022/05/12 06:09:24;;;;;;;4.43;3.17;;;20.90;55.10;;;;;;5055078;28;20433;-65
2022/05/12 06:11:52;;;;;;;6.17;3.67;;;20.90;55.50;;;;;;5055202;28;21022;-64
2022/05/12 06:14:19;;;;;;;4.27;3.43;;;21.00;55.30;;;;;;5055206;28;20445;-64
2022/05/12 06:16:46;;;;;;;8.50;3.40;;;21.00;56.20;;;;;;5054826;28;20523;-64
2022/05/12 06:19:13;;;;;;;5.37;3.20;;;21.10;54.80;;;;;;5055142;28;20532;-68
2022/05/12 06:21:40;;;;;;;7.83;3.90;;;21.20;54.50;;;;;;5055048;28;20528;-63
2022/05/12 06:24:07;;;;;;;6.40;3.10;;;21.30;54.10;;;;;;5054878;28;20524;-64
2022/05/12 06:26:34;;;;;;;7.47;3.47;;;21.30;52.80;;;;;;5054846;28;20800;-64
2022/05/12 06:29:02;;;;;;;8.23;3.87;;;21.40;52.70;;;;;;5053674;28;20443;-65
2022/05/12 06:31:32;;;;;;;7.10;2.97;;;21.50;53.20;;;;;;5054552;28;20548;-64
2022/05/12 06:34:00;;;;;;;8.90;3.40;;;21.70;52.80;;;;;;5054687;28;20440;-65
2022/05/12 06:36:28;;;;;;;5.77;3.00;;;21.70;52.10;;;;;;5054365;28;20480;-65
2022/05/12 06:38:55;;;;;;;6.13;3.50;;;21.80;52.30;;;;;;5054513;28;20911;-65
2022/05/12 06:41:23;;;;;;;6.90;3.00;;;21.90;53.00;;;;;;5054752;28;20531;-64
2022/05/12 06:43:50;;;;;;;10.60;3.53;;;22.00;52.00;;;;;;5054364;28;20456;-64
2022/05/12 06:46:20;;;;;;;6.50;4.10;;;22.20;52.10;;;;;;5054326;28;20972;-64
2022/05/12 06:48:48;;;;;;;5.70;2.77;;;22.30;52.10;;;;;;5054542;28;20519;-64
2022/05/12 06:51:16;;;;;;;4.53;3.03;;;22.50;51.60;;;;;;5054289;28;20554;-64
2022/05/12 06:53:43;;;;;;;3.90;2.73;;;22.70;51.30;;;;;;5054451;28;20529;-64
2022/05/12 06:56:10;;;;;;;3.83;2.87;;;22.90;51.30;;;;;;5054250;28;20480;-64
2022/05/12 06:58:38;;;;;;;6.30;3.37;;;23.10;50.50;;;;;;5054124;28;20433;-64
2022/05/12 07:01:06;;;;;;;4.20;3.40;;;23.30;49.80;;;;;;5054372;28;20523;-64
2022/05/12 07:03:34;;;;;;;7.33;3.70;;;23.40;50.60;;;;;;5054202;28;20449;-64
2022/05/12 07:06:02;;;;;;;5.27;3.20;;;23.50;50.50;;;;;;5053465;28;20445;-66
2022/05/12 07:08:29;;;;;;;3.90;2.83;;;23.60;49.00;;;;;;5054078;28;20441;-66
2022/05/12 07:10:57;;;;;;;11.37;3.40;;;23.60;48.30;;;;;;5053989;28;20455;-64
2022/05/12 07:13:24;;;;;;;4.10;3.67;;;23.70;47.40;;;;;;5054106;28;20437;-67
2022/05/12 07:15:52;;;;;;;4.50;3.30;;;23.70;46.30;;;;;;5054051;28;20579;-64
2022/05/12 07:18:20;;;;;;;5.97;3.10;;;23.70;46.70;;;;;;5054025;28;20441;-64
2022/05/12 07:29:02;;;;;;;5.20;2.60;;;23.90;45.60;;;;;;5053900;28;20432;-64
2022/05/12 07:31:29;;;;;;;6.70;3.07;;;24.10;46.20;;;;;;5053560;28;20567;-66
2022/05/12 07:33:57;;;;;;;3.33;2.13;;;24.50;46.20;;;;;;5053621;28;20433;-65
2022/05/12 07:36:28;;;;;;;5.77;3.50;;;24.80;46.60;;;;;;5053545;28;20477;-64
2022/05/12 07:38:56;;;;;;;7.47;2.63;;;25.20;45.80;;;;;;5053019;28;20425;-66
2022/05/12 07:41:23;;;;;;;6.63;3.37;;;25.40;44.70;;;;;;5053512;28;20437;-64
2022/05/12 07:43:51;;;;;;;6.20;2.57;;;25.60;43.90;;;;;;5053568;28;20538;-64
2022/05/12 07:46:21;;;;;;;7.13;2.40;;;25.70;43.40;;;;;;5053171;28;20461;-64
2022/05/12 07:48:48;;;;;;;3.90;2.87;;;25.80;42.30;;;;;;5053515;28;20443;-64
2022/05/12 07:51:17;;;;;;;8.77;3.30;;;25.90;42.90;;;;;;5053284;28;20528;-64
2022/05/12 07:53:47;;;;;;;5.83;2.57;;;26.00;42.70;;;;;;5053218;28;20446;-64
2022/05/12 07:56:15;;;;;;;10.03;3.20;;;26.20;41.80;;;;;;5053162;28;20487;-64
2022/05/12 07:58:42;;;;;;;6.00;3.07;;;26.20;41.10;;;;;;5053069;28;20460;-64
2022/05/12 08:01:09;;;;;;;3.27;2.60;;;26.40;40.50;;;;;;5052997;28;20517;-65
2022/05/12 08:03:36;;;;;;;7.93;2.93;;;26.50;40.60;;;;;;5052998;28;20448;-64
2022/05/12 08:06:03;;;;;;;6.67;3.27;;;26.50;39.50;;;;;;5052993;28;20856;-64
2022/05/12 08:08:30;;;;;;;7.37;3.00;;;26.60;40.10;;;;;;5052867;28;21015;-64
2022/05/12 08:10:58;;;;;;;5.40;2.63;;;26.70;40.80;;;;;;5052821;28;20864;-64
2022/05/12 08:13:25;;;;;;;4.37;2.90;;;26.80;40.90;;;;;;5052867;28;20536;-65
2022/05/12 08:15:53;;;;;;;5.10;2.43;;;26.90;40.00;;;;;;5053042;28;20571;-64
2022/05/12 08:18:22;;;;;;;5.63;3.30;;;26.90;38.80;;;;;;5052882;28;20503;-64
2022/05/12 08:20:50;;;;;;;5.77;3.60;;;26.90;40.40;;;;;;5052584;28;20441;-64
2022/05/12 08:23:17;;;;;;;4.90;2.73;;;26.90;40.30;;;;;;5052649;28;20484;-64
2022/05/12 08:25:45;;;;;;;4.00;2.53;;;26.90;36.90;;;;;;5052831;28;20523;-64
2022/05/12 08:28:16;;;;;;;5.50;3.13;;;26.90;38.90;;;;;;5053087;28;20454;-64
2022/05/12 08:30:45;;;;;;;6.43;2.60;;;26.90;37.40;;;;;;5052734;28;20437;-64
2022/05/12 08:33:12;;;;;;;4.90;3.77;;;26.90;38.70;;;;;;5052890;28;20436;-64
2022/05/12 08:35:40;;;;;;;9.50;3.60;;;26.90;39.40;;;;;;5052545;28;20567;-65
2022/05/12 08:38:07;;;;;;;5.33;3.33;;;27.00;38.20;;;;;;5052648;28;20445;-67
2022/05/12 08:40:46;;;;;;;5.03;2.40;;;27.10;39.40;;;;;;5052712;28;20437;-64
2022/05/12 08:43:18;;;;;;;3.03;2.20;;;27.20;37.30;;;;;;5052871;28;20490;-66
2022/05/12 08:45:45;;;;;;;4.70;2.60;;;27.30;37.60;;;;;;5052833;28;20445;-64
2022/05/12 08:48:15;;;;;;;4.60;2.60;;;27.30;35.60;;;;;;5052022;28;20550;-65
2022/05/12 08:50:42;;;;;;;4.90;2.17;;;27.30;35.90;;;;;;5052617;28;20437;-65
2022/05/12 08:53:13;;;;;;;11.80;3.13;;;27.30;35.60;;;;;;5055318;28;20528;-64
2022/05/12 08:55:47;;;;;;;3.40;2.07;;;27.40;35.10;;;;;;5056507;28;20508;-65
2022/05/12 08:58:22;;;;;;;4.10;2.20;;;27.40;34.60;;;;;;5056665;28;20434;-64
2022/05/12 09:00:57;;;;;;;5.10;2.30;;;27.40;34.80;;;;;;5056552;28;20439;-64
2022/05/12 09:03:34;;;;;;;5.13;3.00;;;27.50;33.90;;;;;;5056542;28;20436;-64
2022/05/12 09:06:05;;;;;;;3.20;2.27;;;27.60;34.50;;;;;;5056175;28;20460;-64
2022/05/12 09:08:38;;;;;;;3.90;1.97;;;27.70;35.00;;;;;;5056625;28;20479;-64
2022/05/12 09:11:11;;;;;;;4.90;2.50;;;27.90;35.00;;;;;;5056203;28;20438;-65
2022/05/12 09:13:45;;;;;;;4.50;2.80;;;28.10;34.90;;;;;;5056303;28;20522;-64
2022/05/12 09:16:17;;;;;;;7.40;2.47;;;28.30;33.40;;;;;;5056162;28;21019;-64
2022/05/12 09:18:45;;;;;;;5.60;2.53;;;28.50;32.80;;;;;;5056205;28;20440;-64
2022/05/12 09:21:19;;;;;;;4.53;2.27;;;28.60;32.00;;;;;;5056196;28;20528;-64
2022/05/12 09:23:46;;;;;;;4.53;2.50;;;28.70;33.40;;;;;;5056037;28;20526;-64
2022/05/12 09:26:34;;;;;;;4.37;2.20;;;28.80;33.00;;;;;;5055975;28;20539;-64
2022/05/12 09:29:17;;;;;;;3.73;2.43;;;28.80;29.70;;;;;;5055494;28;20517;-65
2022/05/12 09:31:47;;;;;;;4.77;2.17;;;28.80;29.50;;;;;;5056092;28;20491;-64
2022/05/12 09:34:21;;;;;;;5.70;2.40;;;28.90;30.70;;;;;;5055827;28;21006;-65
2022/05/12 09:36:48;;;;;;;3.67;2.27;;;29.10;30.20;;;;;;5055911;28;20499;-64
2022/05/12 09:39:34;;;;;;;3.00;2.00;;;29.30;31.40;;;;;;5055531;28;20539;-64
2022/05/12 09:42:02;;;;;;;6.60;2.27;;;29.40;30.70;;;;;;5055920;28;20479;-64
2022/05/12 09:44:32;;;;;;;3.37;2.13;;;29.60;30.50;;;;;;5055753;28;20433;-65
2022/05/12 09:47:01;;;;;;;3.87;2.40;;;29.80;29.80;;;;;;5055429;28;20979;-65
2022/05/12 09:49:32;;;;;;;5.00;2.83;;;30.00;29.60;;;;;;5055523;28;20445;-64
2022/05/12 09:52:18;;;;;;;4.40;2.70;;;30.20;28.20;;;;;;5055787;28;20439;-64
2022/05/12 09:54:46;;;;;;;3.40;2.70;;;30.30;27.90;;;;;;5055799;28;20439;-64
2022/05/12 09:57:17;;;;;;;4.83;2.90;;;30.20;27.70;;;;;;5055398;28;20827;-64
2022/05/12 09:59:53;;;;;;;9.37;3.20;;;30.20;27.30;;;;;;5055434;28;20433;-64
2022/05/12 10:08:21;;;;;;;2.70;2.00;;;30.20;28.20;;;;;;5032928;28;20464;-65
2022/05/12 10:10:53;;;;;;;6.03;2.67;;;30.20;29.00;;;;;;5046357;28;20498;-65
2022/05/12 10:13:26;;;;;;;7.00;2.77;;;30.30;28.80;;;;;;5054935;28;20511;-65
2022/05/12 10:15:56;;;;;;;6.80;2.53;;;30.30;29.60;;;;;;5055093;28;20475;-65
2022/05/12 10:18:29;;;;;;;6.57;2.17;;;30.40;29.70;;;;;;5055377;28;20767;-64
2022/05/12 10:21:07;;;;;;;6.07;3.00;;;30.40;29.50;;;;;;5055024;28;20528;-65
2022/05/12 10:23:41;;;;;;;7.30;2.43;;;30.40;30.50;;;;;;5054995;28;20516;-65
2022/05/12 10:26:13;;;;;;;5.63;2.80;;;30.30;28.70;;;;;;5055081;28;20452;-64
2022/05/12 10:28:50;;;;;;;6.20;2.30;;;30.40;29.40;;;;;;5054944;28;20441;-64
2022/05/12 10:31:25;;;;;;;4.80;2.47;;;30.20;29.10;;;;;;5055213;28;20515;-64
2022/05/12 10:34:00;;;;;;;5.40;2.73;;;30.20;29.70;;;;;;5054811;28;20429;-64
2022/05/12 10:36:44;;;;;;;5.23;2.97;;;30.20;29.90;;;;;;5054644;28;20523;-64
2022/05/12 10:39:21;;;;;;;10.83;2.77;;;30.20;29.40;;;;;;5054751;28;20437;-64
2022/05/12 10:42:04;;;;;;;4.90;2.50;;;30.20;30.20;;;;;;5054481;28;21041;-64
2022/05/12 10:44:53;;;;;;;4.07;2.50;;;30.10;28.60;;;;;;5054934;28;20532;-64
2022/05/12 10:47:35;;;;;;;5.17;2.53;;;30.20;29.20;;;;;;5054482;28;20460;-64
2022/05/12 10:50:11;;;;;;;3.93;2.37;;;30.10;28.40;;;;;;5054547;28;20540;-64
2022/05/12 10:52:49;;;;;;;5.50;3.60;;;30.00;29.20;;;;;;5054524;28;20795;-64
2022/05/12 10:55:26;;;;;;;4.10;3.17;;;30.00;29.00;;;;;;5054582;28;20437;-64
2022/05/12 10:58:21;;;;;;;5.50;2.80;;;29.90;29.20;;;;;;5054060;28;20472;-64
2022/05/12 11:01:04;;;;;;;3.37;2.47;;;29.80;29.30;;;;;;5054416;28;20483;-64
2022/05/12 11:03:37;;;;;;;5.90;2.77;;;29.90;30.50;;;;;;5054281;28;20437;-64
2022/05/12 11:06:08;;;;;;;3.60;2.33;;;30.10;30.60;;;;;;5053670;28;20520;-65
2022/05/12 11:08:39;;;;;;;5.53;2.60;;;30.20;30.50;;;;;;5054102;28;20524;-64
2022/05/12 11:11:10;;;;;;;6.20;3.57;;;30.20;30.70;;;;;;5054104;28;20436;-64
2022/05/12 11:13:43;;;;;;;5.20;3.07;;;30.30;30.00;;;;;;5054169;28;20433;-66
2022/05/12 11:16:14;;;;;;;6.90;3.10;;;30.20;30.00;;;;;;5053460;28;20874;-64
2022/05/12 11:18:47;;;;;;;7.77;2.60;;;30.30;29.20;;;;;;5053654;28;20532;-64
2022/05/12 11:21:18;;;;;;;7.33;3.03;;;30.20;29.70;;;;;;5053880;28;20535;-64
2022/05/12 11:23:59;;;;;;;4.30;2.70;;;30.20;29.90;;;;;;5053601;28;20441;-65
2022/05/12 11:26:53;;;;;;;6.37;3.40;;;30.20;29.90;;;;;;5053851;28;20436;-64
2022/05/12 11:29:44;;;;;;;8.03;3.43;;;30.30;29.80;;;;;;5051908;28;20449;-66
2022/05/12 11:32:27;;;;;;;6.57;2.57;;;30.30;29.40;;;;;;5053791;28;20437;-64
2022/05/12 11:35:02;;;;;;;6.67;2.43;;;30.20;29.70;;;;;;5053663;28;20425;-64
2022/05/12 11:37:34;;;;;;;5.17;3.17;;;30.30;29.80;;;;;;5053604;28;20567;-65
2022/05/12 11:40:03;;;;;;;4.43;2.90;;;30.30;29.30;;;;;;5053378;28;20437;-65
2022/05/12 11:44:23;;;;;;;2.90;2.30;;;30.20;29.50;;;;;;5053597;28;20437;-65
2022/05/12 11:45:35;;;;;;;7.93;2.90;;;30.00;29.10;;;;;;5053102;28;20932;-64
2022/05/12 11:48:27;;;;;;;7.87;3.53;;;29.90;30.30;;;;;;5053400;28;20982;-64
2022/05/12 11:51:10;;;;;;;3.80;3.17;;;29.90;30.00;;;;;;5053461;28;20448;-64
2022/05/12 11:53:53;;;;;;;5.23;3.17;;;29.90;30.60;;;;;;5053347;28;20764;-64
2022/05/12 11:56:44;;;;;;;3.50;2.50;;;30.00;30.00;;;;;;5053074;28;20957;-64
2022/05/12 11:59:46;;;;;;;4.83;2.67;;;30.00;30.00;;;;;;5053341;28;20433;-64
2022/05/12 12:02:48;;;;;;;5.70;2.90;;;30.00;30.50;;;;;;5050911;28;20449;-64
2022/05/12 12:05:58;;;;;;;7.20;3.23;;;30.00;30.50;;;;;;4991432;28;20431;-64
2022/05/12 12:08:45;;;;;;;6.27;2.90;;;29.90;28.00;;;;;;4991427;28;20437;-64
2022/05/12 12:11:28;;;;;;;5.93;3.17;;;29.70;29.50;;;;;;5045878;28;20465;-64
2022/05/12 12:13:56;;;;;;;4.07;3.03;;;29.70;28.60;;;;;;5053132;28;20432;-64
2022/05/12 12:16:26;;;;;;;4.07;3.00;;;29.70;28.70;;;;;;5052932;28;21034;-65
2022/05/12 12:19:01;;;;;;;4.63;3.30;;;29.70;29.60;;;;;;5053336;28;20527;-64
2022/05/12 12:21:53;;;;;;;4.10;2.67;;;29.70;29.50;;;;;;5053240;28;20444;-64
2022/05/12 12:24:53;;;;;;;4.60;2.80;;;29.70;28.40;;;;;;5053142;28;20531;-64
2022/05/12 12:27:47;;;;;;;3.93;2.70;;;29.70;29.00;;;;;;5052268;28;20522;-64
2022/05/12 12:30:27;;;;;;;4.80;3.00;;;29.60;29.30;;;;;;5052983;28;20469;-64
2022/05/12 12:33:20;;;;;;;8.50;2.77;;;29.60;29.70;;;;;;5053051;28;20437;-64
2022/05/12 12:35:54;;;;;;;4.43;3.00;;;29.60;30.00;;;;;;5052680;28;20482;-64
2022/05/12 12:38:58;;;;;;;4.73;2.80;;;29.70;29.90;;;;;;5052597;28;20488;-64
2022/05/12 12:41:45;;;;;;;5.37;2.57;;;29.70;30.40;;;;;;5052876;28;20444;-64
2022/05/12 12:44:19;;;;;;;7.03;3.23;;;29.80;30.20;;;;;;5052530;28;20928;-64
2022/05/12 12:47:00;;;;;;;3.90;3.00;;;29.80;29.70;;;;;;5052294;28;20508;-64
2022/05/12 12:49:31;;;;;;;4.00;2.87;;;29.70;29.30;;;;;;5052303;28;20924;-65
2022/05/12 12:52:05;;;;;;;4.37;2.77;;;29.70;29.30;;;;;;5052638;28;20516;-64
2022/05/12 12:57:22;;;;;;;7.20;2.90;;;29.60;29.00;;;;;;5052816;28;20476;-64
2022/05/12 12:59:52;;;;;;;6.43;3.50;;;29.60;29.20;;;;;;5052635;28;20535;-65
2022/05/12 13:02:40;;;;;;;6.57;4.80;;;29.60;29.50;;;;;;5052267;28;20535;-64
2022/05/12 13:05:12;;;;;;;6.00;2.60;;;29.60;29.20;;;;;;5052478;28;20445;-64
2022/05/12 13:07:42;;;;;;;5.10;2.83;;;29.60;29.90;;;;;;5052654;28;20456;-64
2022/05/12 13:10:11;;;;;;;4.80;2.63;;;29.50;28.70;;;;;;5052538;28;20456;-64
2022/05/12 13:12:40;;;;;;;9.40;3.80;;;29.50;28.80;;;;;;5052593;28;20453;-65
2022/05/12 13:15:16;;;;;;;5.10;2.60;;;29.40;28.60;;;;;;5052373;28;20490;-65
2022/05/12 13:17:49;;;;;;;4.37;3.07;;;29.40;29.50;;;;;;5051891;28;21070;-64
2022/05/12 13:20:19;;;;;;;5.23;3.80;;;29.40;30.00;;;;;;5052391;28;20566;-64
2022/05/12 13:22:50;;;;;;;7.23;3.07;;;29.40;30.00;;;;;;5052432;28;20452;-65
2022/05/12 13:25:23;;;;;;;5.00;2.80;;;29.40;30.80;;;;;;5052418;28;20467;-64